createdAt,value
2019-01-25T00:01:22.191Z,22.22
2019-01-25T00:03:24.059Z,19.07
2019-01-25T00:05:25.898Z,21.20
2019-01-25T00:07:27.651Z,21.27
2019-01-25T00:09:29.416Z,21.80
2019-01-25T00:11:31.423Z,18.80
2019-01-25T00:13:33.412Z,19.92
2019-01-25T00:15:35.280Z,20.00
2019-01-25T00:17:37.289Z,19.55
2019-01-25T00:19:39.079Z,21.85
2019-01-25T00:21:40.982Z,20.45
2019-01-25T00:23:42.769Z,20.90
2019-01-25T00:25:44.739Z,21.45
2019-01-25T00:27:46.716Z,19.42
2019-01-25T00:29:48.592Z,21.07
2019-01-25T00:31:50.362Z,20.50
2019-01-25T00:33:52.107Z,20.57
2019-01-25T00:35:54.088Z,20.02
2019-01-25T00:37:55.949Z,20.55
2019-01-25T00:39:57.861Z,20.72
2019-01-25T00:41:59.800Z,20.10
2019-01-25T00:44:01.773Z,18.42
2019-01-25T00:46:03.761Z,18.15
2019-01-25T00:48:05.636Z,20.30
2019-01-25T00:50:11.623Z,18.98
2019-01-25T00:52:13.591Z,17.45
2019-01-25T00:54:15.435Z,17.67
2019-01-25T00:56:17.302Z,18.45
2019-01-25T00:58:19.224Z,18.60
2019-01-25T01:00:22.807Z,18.95
2019-01-25T01:02:25.056Z,17.12
2019-01-25T01:04:26.832Z,17.60
2019-01-25T01:06:28.712Z,17.70
2019-01-25T01:08:30.707Z,18.87
2019-01-25T01:10:32.638Z,17.55
2019-01-25T01:12:34.643Z,17.60
2019-01-25T01:14:36.385Z,19.15
2019-01-25T01:16:38.355Z,18.65
2019-01-25T01:18:40.323Z,17.85
2019-01-25T01:20:42.287Z,18.98
2019-01-25T01:22:44.180Z,18.67
2019-01-25T01:24:46.073Z,19.00
2019-01-25T01:26:48.002Z,18.15
2019-01-25T01:28:49.751Z,20.45
2019-01-25T01:30:51.677Z,17.90
2019-01-25T01:32:53.735Z,17.67
2019-01-25T01:34:55.578Z,17.98
2019-01-25T01:36:57.537Z,19.17
2019-01-25T01:38:59.702Z,17.20
2019-01-25T01:41:01.624Z,17.73
2019-01-25T01:43:03.908Z,20.10
2019-01-25T01:45:07.054Z,20.88
2019-01-25T01:47:09.009Z,19.02
2019-01-25T01:49:10.864Z,18.20
2019-01-25T01:51:12.664Z,18.20
2019-01-25T01:53:14.520Z,20.48
2019-01-25T01:55:16.367Z,20.05
2019-01-25T01:57:18.143Z,20.52
2019-01-25T01:59:19.915Z,18.48
2019-01-25T02:01:21.883Z,21.55
2019-01-25T02:03:23.769Z,21.48
2019-01-25T02:05:25.647Z,20.97
2019-01-25T02:07:27.413Z,19.50
2019-01-25T02:09:29.401Z,19.10
2019-01-25T02:11:31.442Z,19.27
2019-01-25T02:13:33.195Z,17.65
2019-01-25T02:15:35.155Z,18.65
2019-01-25T02:17:36.991Z,20.40
2019-01-25T02:19:38.844Z,18.73
2019-01-25T02:21:40.621Z,20.68
2019-01-25T02:23:42.567Z,20.35
2019-01-25T02:25:44.512Z,19.07
2019-01-25T02:27:46.499Z,19.70
2019-01-25T02:29:48.298Z,18.57
2019-01-25T02:31:50.181Z,22.27
2019-01-25T02:33:52.176Z,19.45
2019-01-25T02:35:54.792Z,21.40
2019-01-25T02:37:56.752Z,19.30
2019-01-25T02:39:58.646Z,19.23
2019-01-25T02:42:00.391Z,20.55
2019-01-25T02:44:02.233Z,17.50
2019-01-25T02:46:04.206Z,19.82
2019-01-25T02:48:06.292Z,18.45
2019-01-25T02:50:10.914Z,18.52
2019-01-25T02:52:12.811Z,18.87
2019-01-25T02:54:14.539Z,20.02
2019-01-25T02:56:16.430Z,20.88
2019-01-25T02:58:18.641Z,19.57
2019-01-25T03:00:22.818Z,19.73
2019-01-25T03:02:24.784Z,21.37
2019-01-25T03:04:26.687Z,18.98
2019-01-25T03:06:28.652Z,20.52
2019-01-25T03:08:30.510Z,18.62
2019-01-25T03:10:32.584Z,17.25
2019-01-25T03:12:34.530Z,18.15
2019-01-25T03:14:36.661Z,20.37
2019-01-25T03:16:38.868Z,19.12
2019-01-25T03:18:40.738Z,16.82
2019-01-25T03:20:42.637Z,18.42
2019-01-25T03:22:44.619Z,20.02
2019-01-25T03:24:46.502Z,18.17
2019-01-25T03:26:48.588Z,19.35
2019-01-25T03:28:50.478Z,19.12
2019-01-25T03:30:52.226Z,19.48
2019-01-25T03:32:54.250Z,17.37
2019-01-25T03:34:56.047Z,17.50
2019-01-25T03:36:57.986Z,18.32
2019-01-25T03:38:59.875Z,17.50
2019-01-25T03:41:01.784Z,18.48
2019-01-25T03:43:03.748Z,18.80
2019-01-25T03:45:06.095Z,17.57
2019-01-25T03:47:08.177Z,19.55
2019-01-25T03:49:10.153Z,17.90
2019-01-25T03:51:12.021Z,19.30
2019-01-25T03:53:13.924Z,18.42
2019-01-25T03:55:15.997Z,19.15
2019-01-25T03:57:17.864Z,19.40
2019-01-25T03:59:19.844Z,19.17
2019-01-25T04:01:21.616Z,18.75
2019-01-25T04:03:23.395Z,18.40
2019-01-25T04:05:25.576Z,17.92
2019-01-25T04:07:27.437Z,18.25
2019-01-25T04:09:29.180Z,19.77
2019-01-25T04:11:31.045Z,18.10
2019-01-25T04:13:32.794Z,19.20
2019-01-25T04:15:35.023Z,19.90
2019-01-25T04:17:36.987Z,17.70
2019-01-25T04:19:38.786Z,17.35
2019-01-25T04:21:40.737Z,18.95
2019-01-25T04:23:42.729Z,18.23
2019-01-25T04:25:44.469Z,17.65
2019-01-25T04:27:46.637Z,19.45
2019-01-25T04:29:48.442Z,19.57
2019-01-25T04:31:50.335Z,16.73
2019-01-25T04:33:52.211Z,18.40
2019-01-25T04:35:54.087Z,16.85
2019-01-25T04:37:55.979Z,19.07
2019-01-25T04:39:57.756Z,18.85
2019-01-25T04:41:59.838Z,18.90
2019-01-25T04:44:01.708Z,21.00
2019-01-25T04:46:03.675Z,24.70
2019-01-25T04:48:11.360Z,30.80
2019-01-25T04:50:15.644Z,29.42
2019-01-25T04:52:17.524Z,21.50
2019-01-25T04:54:19.302Z,20.25
2019-01-25T04:56:21.091Z,20.48
2019-01-25T04:58:23.223Z,21.20
2019-01-25T05:00:25.085Z,20.02
2019-01-25T05:02:26.916Z,19.32
2019-01-25T05:04:35.068Z,20.80
2019-01-25T05:06:37.182Z,18.73
2019-01-25T05:08:39.117Z,21.70
2019-01-25T05:10:41.534Z,21.35
2019-01-25T05:12:53.047Z,20.30
2019-01-25T05:14:55.109Z,20.55
2019-01-25T05:16:57.453Z,21.05
2019-01-25T05:18:59.215Z,21.23
2019-01-25T05:21:01.170Z,22.15
2019-01-25T05:23:04.314Z,20.92
2019-01-25T05:25:06.528Z,19.67
2019-01-25T05:27:08.419Z,20.55
2019-01-25T05:29:10.396Z,21.77
2019-01-25T05:31:13.021Z,21.55
2019-01-25T05:33:14.772Z,19.52
2019-01-25T05:35:16.743Z,20.85
2019-01-25T05:37:18.657Z,21.90
2019-01-25T05:39:21.099Z,21.60
2019-01-25T05:41:28.299Z,22.35
2019-01-25T05:43:30.704Z,19.80
2019-01-25T05:45:32.664Z,21.90
2019-01-25T05:47:34.551Z,22.65
2019-01-25T05:49:36.618Z,23.38
2019-01-25T05:51:38.477Z,21.82
2019-01-25T05:53:50.132Z,22.25
2019-01-25T05:55:52.223Z,21.50
2019-01-25T05:57:59.351Z,25.12
2019-01-25T06:00:04.911Z,22.13
2019-01-25T06:02:06.778Z,21.25
2019-01-25T06:04:08.608Z,21.10
2019-01-25T06:06:11.370Z,21.23
2019-01-25T06:08:34.456Z,22.22
2019-01-25T06:10:36.313Z,19.30
2019-01-25T06:12:38.271Z,21.57
2019-01-25T06:14:40.010Z,20.35
2019-01-25T06:16:41.771Z,20.82
2019-01-25T06:18:43.734Z,20.02
2019-01-25T06:20:50.314Z,20.37
2019-01-25T06:22:54.890Z,19.55
2019-01-25T06:24:56.761Z,19.20
2019-01-25T06:26:58.691Z,22.37
2019-01-25T06:29:00.424Z,21.95
2019-01-25T06:31:02.387Z,20.50
2019-01-25T06:33:04.151Z,22.02
2019-01-25T06:35:06.089Z,21.20
2019-01-25T06:37:08.068Z,21.50
2019-01-25T06:39:09.934Z,19.90
2019-01-25T06:41:11.917Z,21.48
2019-01-25T06:43:13.941Z,22.67
2019-01-25T06:45:16.001Z,21.75
2019-01-25T06:47:17.887Z,24.92
2019-01-25T06:49:19.895Z,22.00
2019-01-25T06:51:21.721Z,20.90
2019-01-25T06:53:23.559Z,21.97
2019-01-25T06:55:25.666Z,22.60
2019-01-25T06:57:46.977Z,23.38
2019-01-25T06:59:48.773Z,23.45
2019-01-25T07:01:57.095Z,23.32
2019-01-25T07:03:59.191Z,22.42
2019-01-25T07:06:01.181Z,21.93
2019-01-25T07:08:03.248Z,22.48
2019-01-25T07:10:09.564Z,23.90
2019-01-25T07:12:11.316Z,23.67
2019-01-25T07:14:13.285Z,20.50
2019-01-25T07:16:15.067Z,23.30
2019-01-25T07:18:16.935Z,22.07
2019-01-25T07:20:18.793Z,21.05
2019-01-25T07:22:20.831Z,23.47
2019-01-25T07:24:22.783Z,22.40
2019-01-25T07:26:24.556Z,23.07
2019-01-25T07:28:26.288Z,22.27
2019-01-25T07:30:28.224Z,24.82
2019-01-25T07:32:30.000Z,22.73
2019-01-25T07:34:31.876Z,24.12
2019-01-25T07:36:33.658Z,22.70
2019-01-25T07:38:35.603Z,26.25
2019-01-25T07:40:37.392Z,21.68
2019-01-25T07:42:40.477Z,24.20
2019-01-25T07:44:42.245Z,33.48
2019-01-25T07:46:44.025Z,29.87
2019-01-25T07:48:46.003Z,30.57
2019-01-25T07:50:48.086Z,28.27
2019-01-25T07:52:49.936Z,24.45
2019-01-25T07:54:52.056Z,21.52
2019-01-25T07:56:53.880Z,22.65
2019-01-25T07:58:55.672Z,24.02
2019-01-25T08:00:57.865Z,23.67
2019-01-25T08:02:59.780Z,23.15
2019-01-25T08:05:02.153Z,25.40
2019-01-25T08:07:04.526Z,24.47
2019-01-25T08:09:08.154Z,24.30
2019-01-25T08:11:09.914Z,22.05
2019-01-25T08:13:11.950Z,25.00
2019-01-25T08:15:16.145Z,22.07
2019-01-25T08:17:18.024Z,21.70
2019-01-25T08:19:19.813Z,21.62
2019-01-25T08:21:21.590Z,20.10
2019-01-25T08:23:23.454Z,21.27
2019-01-25T08:25:25.236Z,23.25
2019-01-25T08:27:27.015Z,21.60
2019-01-25T08:29:29.000Z,20.32
2019-01-25T08:31:31.220Z,21.60
2019-01-25T08:33:33.014Z,23.38
2019-01-25T08:35:35.168Z,23.30
2019-01-25T08:37:37.175Z,21.10
2019-01-25T08:39:39.020Z,22.73
2019-01-25T08:41:40.979Z,25.27
2019-01-25T08:43:43.268Z,24.23
2019-01-25T08:45:45.180Z,22.17
2019-01-25T08:47:47.178Z,22.00
2019-01-25T08:49:49.261Z,21.15
2019-01-25T08:51:51.144Z,22.42
2019-01-25T08:53:52.912Z,19.90
2019-01-25T08:55:54.908Z,20.95
2019-01-25T08:57:56.911Z,21.82
2019-01-25T08:59:58.867Z,20.75
2019-01-25T09:02:00.943Z,21.65
2019-01-25T09:04:03.294Z,22.60
2019-01-25T09:06:05.229Z,20.70
2019-01-25T09:08:07.266Z,22.95
2019-01-25T09:10:13.940Z,21.10
2019-01-25T09:12:23.097Z,22.20
2019-01-25T09:14:20.131Z,21.77
2019-01-25T09:16:22.155Z,18.50
2019-01-25T09:18:24.143Z,20.05
2019-01-25T09:20:26.135Z,21.82
2019-01-25T09:22:28.216Z,20.62
2019-01-25T09:24:30.195Z,21.10
2019-01-25T09:26:32.196Z,23.73
2019-01-25T09:28:34.202Z,22.45
2019-01-25T09:30:36.346Z,22.77
2019-01-25T09:32:38.355Z,24.72
2019-01-25T09:34:40.568Z,22.93
2019-01-25T09:36:42.405Z,25.72
2019-01-25T09:38:44.414Z,24.98
2019-01-25T09:40:46.907Z,24.90
2019-01-25T09:42:49.365Z,22.48
2019-01-25T09:44:51.487Z,22.87
2019-01-25T09:46:53.614Z,24.55
2019-01-25T09:48:55.692Z,22.25
2019-01-25T09:50:57.482Z,24.15
2019-01-25T09:52:59.736Z,24.87
2019-01-25T09:55:01.605Z,25.25
2019-01-25T09:57:04.310Z,24.45
2019-01-25T09:59:06.229Z,23.27
2019-01-25T10:01:09.137Z,25.55
2019-01-25T10:03:10.960Z,25.15
2019-01-25T10:05:12.950Z,24.95
2019-01-25T10:07:14.797Z,27.67
2019-01-25T10:09:16.696Z,24.32
2019-01-25T10:11:19.191Z,25.37
2019-01-25T10:13:21.173Z,25.72
2019-01-25T10:15:24.306Z,27.48
2019-01-25T10:17:26.331Z,25.00
2019-01-25T10:19:28.244Z,26.70
2019-01-25T10:21:30.264Z,25.80
2019-01-25T10:23:32.078Z,26.00
2019-01-25T10:25:34.004Z,25.72
2019-01-25T10:27:35.989Z,26.20
2019-01-25T10:29:37.971Z,24.77
2019-01-25T10:31:39.907Z,24.25
2019-01-25T10:33:41.793Z,25.02
2019-01-25T10:35:44.194Z,25.52
2019-01-25T10:37:46.151Z,23.70
2019-01-25T10:39:47.933Z,22.17
2019-01-25T10:41:49.720Z,24.40
2019-01-25T10:43:51.510Z,23.42
2019-01-25T10:45:54.491Z,22.70
2019-01-25T10:47:56.522Z,20.90
2019-01-25T10:49:59.297Z,18.07
2019-01-25T10:52:01.087Z,16.27
2019-01-25T10:54:03.345Z,18.00
2019-01-25T10:56:05.363Z,17.15
2019-01-25T10:58:07.772Z,15.38
2019-01-25T11:00:12.172Z,17.80
2019-01-25T11:02:13.981Z,16.48
2019-01-25T11:04:15.963Z,17.48
2019-01-25T11:06:17.707Z,15.15
2019-01-25T11:08:19.452Z,14.45
2019-01-25T11:10:21.511Z,15.68
2019-01-25T11:12:24.342Z,14.93
2019-01-25T11:14:29.778Z,15.70
2019-01-25T11:16:31.998Z,16.60
2019-01-25T11:18:34.228Z,16.20
2019-01-25T11:20:36.359Z,16.70
2019-01-25T11:22:38.220Z,16.10
2019-01-25T11:24:39.973Z,14.18
2019-01-25T11:26:41.788Z,15.70
2019-01-25T11:28:43.535Z,15.40
2019-01-25T11:30:45.505Z,16.12
2019-01-25T11:32:47.487Z,15.35
2019-01-25T11:34:49.437Z,16.05
2019-01-25T11:36:51.576Z,15.40
2019-01-25T11:38:55.839Z,16.77
2019-01-25T11:40:57.929Z,15.90
2019-01-25T11:42:59.864Z,16.23
2019-01-25T11:45:02.653Z,13.03
2019-01-25T11:47:05.275Z,15.28
2019-01-25T11:49:07.196Z,18.85
2019-01-25T11:51:08.967Z,16.32
2019-01-25T11:53:11.016Z,15.28
2019-01-25T11:55:13.411Z,15.95
2019-01-25T11:57:15.575Z,15.10
2019-01-25T11:59:17.431Z,18.45
2019-01-25T12:01:19.258Z,17.90
2019-01-25T12:03:21.850Z,16.55
2019-01-25T12:05:23.919Z,19.55
2019-01-25T12:07:25.620Z,16.27
2019-01-25T12:09:27.350Z,17.95
2019-01-25T12:11:29.085Z,16.40
2019-01-25T12:13:31.067Z,21.05
2019-01-25T12:15:35.491Z,18.17
2019-01-25T12:17:37.306Z,17.87
2019-01-25T12:19:39.051Z,19.02
2019-01-25T12:21:40.765Z,19.30
2019-01-25T12:23:42.567Z,18.75
2019-01-25T12:25:51.347Z,15.45
2019-01-25T12:27:53.468Z,17.65
2019-01-25T12:29:55.342Z,18.65
2019-01-25T12:31:57.122Z,18.90
2019-01-25T12:33:58.972Z,17.75
2019-01-25T12:36:04.321Z,19.20
2019-01-25T12:38:06.218Z,20.45
2019-01-25T12:40:09.879Z,18.87
2019-01-25T12:42:11.703Z,18.90
2019-01-25T12:44:13.795Z,20.82
2019-01-25T12:46:15.517Z,18.60
2019-01-25T12:48:17.784Z,15.68
2019-01-25T12:50:28.654Z,20.40
2019-01-25T12:52:30.378Z,18.52
2019-01-25T12:54:32.650Z,20.57
2019-01-25T12:56:38.403Z,20.60
2019-01-25T12:58:40.266Z,17.05
2019-01-25T13:00:42.945Z,20.27
2019-01-25T13:02:45.173Z,20.25
2019-01-25T13:04:47.136Z,19.82
2019-01-25T13:06:49.687Z,19.87
2019-01-25T13:08:51.486Z,18.65
2019-01-25T13:10:53.224Z,21.97
2019-01-25T13:12:55.702Z,18.42
2019-01-25T13:14:59.316Z,21.17
2019-01-25T13:17:01.018Z,20.17
2019-01-25T13:19:03.494Z,18.60
2019-01-25T13:21:05.422Z,15.03
2019-01-25T13:23:07.187Z,18.48
2019-01-25T13:25:09.240Z,19.90
2019-01-25T13:27:11.070Z,17.82
2019-01-25T13:29:12.887Z,19.10
2019-01-25T13:31:15.126Z,20.30
2019-01-25T13:33:16.908Z,21.68
2019-01-25T13:35:19.064Z,21.40
2019-01-25T13:37:20.987Z,21.20
2019-01-25T13:39:22.805Z,24.98
2019-01-25T13:41:27.419Z,23.10
2019-01-25T13:43:28.156Z,23.32
2019-01-25T13:45:29.970Z,25.90
2019-01-25T13:47:31.679Z,23.80
2019-01-25T13:49:33.435Z,25.02
2019-01-25T13:51:35.180Z,23.92
2019-01-25T13:53:37.172Z,23.57
2019-01-25T13:55:42.739Z,26.68
2019-01-25T13:57:48.093Z,25.57
2019-01-25T13:59:49.790Z,20.82
2019-01-25T14:01:56.113Z,24.25
2019-01-25T14:03:55.136Z,26.00
2019-01-25T14:05:56.984Z,23.35
2019-01-25T14:07:58.795Z,22.45
2019-01-25T14:10:00.687Z,22.20
2019-01-25T14:12:02.809Z,23.80
2019-01-25T14:14:04.623Z,20.32
2019-01-25T14:16:09.433Z,23.22
2019-01-25T14:18:12.229Z,24.82
2019-01-25T14:20:23.329Z,21.75
2019-01-25T14:22:25.630Z,24.37
2019-01-25T14:24:30.863Z,26.10
2019-01-25T14:26:41.844Z,25.02
2019-01-25T14:28:44.328Z,25.10
2019-01-25T14:30:46.615Z,25.00
2019-01-25T14:32:51.562Z,24.92
2019-01-25T14:34:56.163Z,26.35
2019-01-25T14:37:02.967Z,28.07
2019-01-25T14:39:06.721Z,27.13
2019-01-25T14:41:08.659Z,22.80
2019-01-25T14:43:11.713Z,28.07
2019-01-25T14:45:13.831Z,26.33
2019-01-25T14:47:15.543Z,25.97
2019-01-25T14:49:17.766Z,24.35
2019-01-25T14:51:19.824Z,24.32
2019-01-25T14:53:21.542Z,21.57
2019-01-25T14:55:23.406Z,27.62
2019-01-25T14:57:25.131Z,24.20
2019-01-25T14:59:26.854Z,27.10
2019-01-25T15:01:28.567Z,27.02
2019-01-25T15:03:30.311Z,26.82
2019-01-25T15:05:32.025Z,29.32
2019-01-25T15:07:35.972Z,25.62
2019-01-25T15:09:38.082Z,29.55
2019-01-25T15:11:40.018Z,27.35
2019-01-25T15:13:41.971Z,27.55
2019-01-25T15:15:43.875Z,27.70
2019-01-25T15:17:45.807Z,27.40
2019-01-25T15:19:47.700Z,28.40
2019-01-25T15:21:50.878Z,23.85
2019-01-25T15:23:52.771Z,26.57
2019-01-25T15:25:54.462Z,29.02
2019-01-25T15:27:56.171Z,31.42
2019-01-25T15:29:57.891Z,28.65
2019-01-25T15:31:59.609Z,28.90
2019-01-25T15:34:01.628Z,30.27
2019-01-25T15:36:03.644Z,30.68
2019-01-25T15:38:05.459Z,28.20
2019-01-25T15:40:08.695Z,31.15
2019-01-25T15:42:10.648Z,31.02
2019-01-25T15:44:12.379Z,28.60
2019-01-25T15:46:15.327Z,27.37
2019-01-25T15:48:17.392Z,28.50
2019-01-25T15:50:21.539Z,28.25
2019-01-25T15:52:23.375Z,32.23
2019-01-25T15:54:25.075Z,31.15
2019-01-25T15:56:27.302Z,28.75
2019-01-25T15:58:29.018Z,30.57
2019-01-25T16:00:30.769Z,32.85
2019-01-25T16:02:32.496Z,30.37
2019-01-25T16:04:35.075Z,29.50
2019-01-25T16:06:37.491Z,30.30
2019-01-25T16:08:39.243Z,31.27
2019-01-25T16:10:41.063Z,31.25
2019-01-25T16:12:43.015Z,29.15
2019-01-25T16:14:44.882Z,32.93
2019-01-25T16:16:46.855Z,29.80
2019-01-25T16:18:48.687Z,31.48
2019-01-25T16:20:50.507Z,30.40
2019-01-25T16:22:52.748Z,29.65
2019-01-25T16:24:54.456Z,29.02
2019-01-25T16:26:56.308Z,29.65
2019-01-25T16:28:58.373Z,25.17
2019-01-25T16:31:00.258Z,30.62
2019-01-25T16:33:02.372Z,26.80
2019-01-25T16:35:04.661Z,25.12
2019-01-25T16:37:06.410Z,27.42
2019-01-25T16:39:20.178Z,28.50
2019-01-25T16:42:02.373Z,25.00
2019-01-25T16:44:01.349Z,22.98
2019-01-25T16:46:03.834Z,29.07
2019-01-25T16:48:05.947Z,28.42
2019-01-25T16:50:30.213Z,24.67
2019-01-25T16:52:32.173Z,23.42
2019-01-25T16:54:33.927Z,23.92
2019-01-25T16:56:36.031Z,23.92
2019-01-25T16:58:37.898Z,26.10
2019-01-25T17:00:42.089Z,25.35
2019-01-25T17:03:03.878Z,24.95
2019-01-25T17:05:09.686Z,24.30
2019-01-25T17:07:14.296Z,25.68
2019-01-25T17:09:26.171Z,24.37
2019-01-25T17:11:42.317Z,23.52
2019-01-25T17:13:44.274Z,23.30
2019-01-25T17:15:46.042Z,23.27
2019-01-25T17:17:47.763Z,22.62
2019-01-25T17:19:49.812Z,23.60
2019-01-25T17:21:54.943Z,24.15
2019-01-25T17:23:57.110Z,24.95
2019-01-25T17:25:58.859Z,22.17
2019-01-25T17:28:00.856Z,23.35
2019-01-25T17:30:05.308Z,26.10
2019-01-25T17:32:07.211Z,25.70
2019-01-25T17:34:12.363Z,26.93
2019-01-25T17:37:08.739Z,26.80
2019-01-25T17:39:15.782Z,25.95
2019-01-25T17:41:17.651Z,24.25
2019-01-25T17:43:19.371Z,23.45
2019-01-25T17:45:21.121Z,23.40
2019-01-25T17:47:23.216Z,24.47
2019-01-25T17:49:24.922Z,24.02
2019-01-25T17:51:27.310Z,25.23
2019-01-25T17:53:29.269Z,24.75
2019-01-25T17:55:31.562Z,26.07
2019-01-25T17:57:33.480Z,25.15
2019-01-25T18:00:38.055Z,25.40
2019-01-25T18:03:16.619Z,25.95
2019-01-25T18:05:18.527Z,26.00
2019-01-25T18:07:20.603Z,28.07
2019-01-25T18:09:24.577Z,25.17
2019-01-25T18:11:26.407Z,23.80
2019-01-25T18:13:28.715Z,22.05
2019-01-25T18:17:58.722Z,22.93
2019-01-25T18:20:00.649Z,24.60
2019-01-25T18:22:02.495Z,28.25
2019-01-25T18:24:04.495Z,26.35
2019-01-25T18:26:11.709Z,24.70
2019-01-25T18:28:20.247Z,24.00
2019-01-25T18:30:29.363Z,23.98
2019-01-25T18:32:31.223Z,24.40
2019-01-25T18:34:33.050Z,23.77
2019-01-25T18:36:34.891Z,24.10
2019-01-25T18:38:37.891Z,26.25
2019-01-25T18:40:39.786Z,26.30
2019-01-25T18:42:41.527Z,22.85
2019-01-25T18:44:43.278Z,21.97
2019-01-25T18:47:12.082Z,24.43
2019-01-25T18:49:14.224Z,23.87
2019-01-25T18:52:10.397Z,22.77
2019-01-25T18:54:12.440Z,22.70
2019-01-25T18:56:15.940Z,21.95
2019-01-25T18:58:17.919Z,18.10
2019-01-25T19:00:20.270Z,24.50
2019-01-25T19:02:22.085Z,24.27
2019-01-25T19:04:23.870Z,22.73
2019-01-25T19:06:25.862Z,25.85
2019-01-25T19:08:27.583Z,23.30
2019-01-25T19:10:29.527Z,25.30
2019-01-25T19:12:31.293Z,22.02
2019-01-25T19:14:45.558Z,20.30
2019-01-25T19:16:47.447Z,22.50
2019-01-25T19:18:49.492Z,23.85
2019-01-25T19:20:52.171Z,24.47
2019-01-25T19:22:54.219Z,23.12
2019-01-25T19:24:56.372Z,24.18
2019-01-25T19:26:58.236Z,23.22
2019-01-25T19:29:00.118Z,22.90
2019-01-25T19:31:02.110Z,24.60
2019-01-25T19:33:04.745Z,21.70
2019-01-25T19:35:16.527Z,24.27
2019-01-25T19:37:18.382Z,23.02
2019-01-25T19:39:20.146Z,23.47
2019-01-25T19:41:21.971Z,24.40
2019-01-25T19:43:23.783Z,21.02
2019-01-25T19:45:26.030Z,23.57
2019-01-25T19:47:28.207Z,22.07
2019-01-25T19:49:30.087Z,22.82
2019-01-25T19:51:31.834Z,22.40
2019-01-25T19:53:34.081Z,23.40
2019-01-25T19:55:36.001Z,23.50
2019-01-25T19:57:39.042Z,27.35
2019-01-25T19:59:40.963Z,22.73
2019-01-25T20:01:42.770Z,25.60
2019-01-25T20:03:55.699Z,22.27
2019-01-25T20:06:00.374Z,22.48
2019-01-25T20:08:02.664Z,25.52
2019-01-25T20:10:04.975Z,23.80
2019-01-25T20:12:06.843Z,23.57
2019-01-25T20:14:08.833Z,25.82
2019-01-25T20:16:11.107Z,25.65
2019-01-25T20:18:13.266Z,26.10
2019-01-25T20:20:20.164Z,25.48
2019-01-25T20:22:22.080Z,22.70
2019-01-25T20:24:24.280Z,25.88
2019-01-25T20:26:26.307Z,24.07
2019-01-25T20:28:28.334Z,25.57
2019-01-25T20:30:33.815Z,28.38
2019-01-25T20:32:38.251Z,27.45
2019-01-25T20:34:40.237Z,24.77
2019-01-25T20:36:42.152Z,28.95
2019-01-25T20:38:43.948Z,28.55
2019-01-25T20:40:45.716Z,27.62
2019-01-25T20:42:47.439Z,27.52
2019-01-25T20:44:49.168Z,24.98
2019-01-25T20:46:53.668Z,26.97
2019-01-25T20:48:55.528Z,26.23
2019-01-25T20:50:57.382Z,25.30
2019-01-25T20:52:59.373Z,23.87
2019-01-25T20:55:01.205Z,25.68
2019-01-25T20:57:03.032Z,27.00
2019-01-25T20:59:08.019Z,29.37
2019-01-25T21:01:21.704Z,29.05
2019-01-25T21:03:23.675Z,28.70
2019-01-25T21:05:28.944Z,27.75
2019-01-25T21:07:34.182Z,31.95
2019-01-25T21:09:35.928Z,29.60
2019-01-25T21:11:37.669Z,29.80
2019-01-25T21:13:39.498Z,33.08
2019-01-25T21:19:12.595Z,33.67
2019-01-25T21:21:14.448Z,31.27
2019-01-25T21:23:16.380Z,25.72
2019-01-25T21:25:18.676Z,31.77
2019-01-25T21:27:20.472Z,26.45
2019-01-25T21:29:22.184Z,30.50
2019-01-25T21:31:24.031Z,28.55
2019-01-25T21:33:52.937Z,25.15
2019-01-25T21:35:54.814Z,31.90
2019-01-25T21:37:56.909Z,27.70
2019-01-25T21:39:58.683Z,30.75
2019-01-25T21:42:00.593Z,29.23
2019-01-25T21:44:02.735Z,32.23
2019-01-25T21:46:04.777Z,29.23
2019-01-25T21:48:12.444Z,32.17
2019-01-25T21:50:16.900Z,26.45
2019-01-25T21:52:18.831Z,30.43
2019-01-25T21:54:20.787Z,26.52
2019-01-25T21:56:22.680Z,35.05
2019-01-25T21:58:24.407Z,28.90
2019-01-25T22:00:30.771Z,32.78
2019-01-25T22:02:32.920Z,32.55
2019-01-25T22:04:35.161Z,29.18
2019-01-25T22:06:37.300Z,30.50
2019-01-25T22:08:39.738Z,28.07
2019-01-25T22:10:44.132Z,31.60
2019-01-25T22:13:00.811Z,30.57
2019-01-25T22:15:02.986Z,28.05
2019-01-25T22:17:04.916Z,34.70
2019-01-25T22:19:06.946Z,34.20
2019-01-25T22:21:14.667Z,31.77
2019-01-25T22:23:25.998Z,31.35
2019-01-25T22:25:27.958Z,32.08
2019-01-25T22:27:30.047Z,32.80
2019-01-25T22:29:31.778Z,31.80
2019-01-25T22:31:33.713Z,33.13
2019-01-25T22:34:13.740Z,36.63
2019-01-25T22:36:15.529Z,27.07
2019-01-25T22:38:17.279Z,31.35
2019-01-25T22:40:22.150Z,32.10
2019-01-25T22:42:24.793Z,32.40
2019-01-25T22:44:26.826Z,34.85
2019-01-25T22:46:28.905Z,34.15
2019-01-25T22:48:30.764Z,32.48
2019-01-25T22:50:36.645Z,29.75
2019-01-25T22:52:38.454Z,31.50
2019-01-25T22:54:40.179Z,31.80
2019-01-25T22:56:41.922Z,35.17
2019-01-25T22:58:43.695Z,32.15
2019-01-25T23:01:11.110Z,33.48
2019-01-25T23:03:47.642Z,32.13
2019-01-25T23:06:31.184Z,28.65
2019-01-25T23:08:33.224Z,27.73
2019-01-25T23:10:35.090Z,32.15
2019-01-25T23:12:37.304Z,34.00
2019-01-25T23:14:39.025Z,34.33
2019-01-25T23:16:40.855Z,33.92
2019-01-25T23:18:42.594Z,34.43
2019-01-25T23:20:44.467Z,32.93
2019-01-25T23:22:46.241Z,33.98
2019-01-25T23:24:54.074Z,32.40
2019-01-25T23:26:56.107Z,30.23
2019-01-25T23:28:59.067Z,32.90
2019-01-25T23:31:21.630Z,30.12
2019-01-25T23:33:23.380Z,33.15
2019-01-25T23:35:25.323Z,31.20
2019-01-25T23:37:27.066Z,32.45
2019-01-25T23:39:28.803Z,32.60
2019-01-25T23:41:30.633Z,33.10
2019-01-25T23:43:34.021Z,34.13
2019-01-25T23:45:35.756Z,33.18
2019-01-25T23:47:37.607Z,32.80
2019-01-25T23:49:39.679Z,33.55
2019-01-25T23:51:41.623Z,32.75
2019-01-25T23:53:43.693Z,36.30
2019-01-25T23:55:45.559Z,31.93
2019-01-25T23:57:47.407Z,31.23
2019-01-25T23:59:49.326Z,34.43
